Time;durP1;ratioP1;P1;durP2;ratioP2;P2;SDS_P1;SDS_P2;PMS_P1;PMS_P2;Temp;Humidity;BMP_temperature;BMP_pressure;BME280_temperature;BME280_humidity;BME280_pressure;Samples;Min_cycle;Max_cycle;Signal;HPM_P1;HPM_P2
2023/07/10 00:01:05;;;;;;;7.60;5.10;;;;;;;20.02;100.00;101044.64;106327;1257;71274;-69
2023/07/10 00:03:32;;;;;;;9.50;4.90;;;;;;;20.00;100.00;101039.04;106362;1257;71431;-68
2023/07/10 00:06:00;;;;;;;8.10;4.90;;;;;;;19.96;100.00;101031.14;106416;1261;61330;-69
2023/07/10 00:08:27;;;;;;;8.40;5.30;;;;;;;19.93;100.00;101030.36;106542;1258;60710;-69
2023/07/10 00:10:55;;;;;;;10.20;4.70;;;;;;;19.89;100.00;101030.53;106353;1260;73115;-68
2023/07/10 00:13:21;;;;;;;8.10;5.00;;;;;;;19.86;100.00;101027.71;106146;1257;70500;-68
2023/07/10 00:15:53;;;;;;;9.00;4.80;;;;;;;19.83;100.00;101020.09;106536;1257;72880;-69
2023/07/10 00:18:22;;;;;;;7.90;4.50;;;;;;;19.81;100.00;101013.67;106674;1256;61807;-69
2023/07/10 00:20:50;;;;;;;5.90;4.40;;;;;;;19.78;100.00;101010.56;108537;1256;60591;-68
2023/07/10 00:23:17;;;;;;;7.90;4.80;;;;;;;19.75;100.00;101008.77;106547;1256;72786;-68
2023/07/10 00:25:44;;;;;;;8.00;4.50;;;;;;;19.73;100.00;101006.03;106560;1256;71162;-69
2023/07/10 00:28:19;;;;;;;8.90;4.50;;;;;;;19.71;100.00;101007.79;106343;1256;72723;-69
2023/07/10 00:30:48;;;;;;;10.40;5.00;;;;;;;19.69;100.00;101006.22;106411;1256;60539;-69
2023/07/10 00:33:17;;;;;;;9.90;5.30;;;;;;;19.68;100.00;101007.65;106400;1260;60942;-69
2023/07/10 00:35:45;;;;;;;8.80;5.00;;;;;;;19.67;100.00;101008.73;106473;1256;73687;-70
2023/07/10 00:38:27;;;;;;;7.70;4.90;;;;;;;19.65;100.00;101009.76;106588;1256;69532;-69
2023/07/10 00:40:56;;;;;;;8.50;4.50;;;;;;;19.63;100.00;101008.59;106266;1259;73877;-68
2023/07/10 00:43:39;;;;;;;7.60;4.50;;;;;;;19.62;100.00;101006.77;106219;1256;61362;-68
2023/07/10 00:46:16;;;;;;;7.80;4.80;;;;;;;19.62;100.00;101005.98;106591;1257;60443;-68
2023/07/10 00:48:58;;;;;;;9.00;4.60;;;;;;;19.63;100.00;101012.67;106313;1257;72522;-69
2023/07/10 00:51:34;;;;;;;11.70;4.70;;;;;;;19.64;100.00;101019.91;106517;1256;70897;-70
2023/07/10 00:54:01;;;;;;;9.90;5.10;;;;;;;19.66;100.00;101024.86;106221;1257;72254;-70
2023/07/10 00:56:38;;;;;;;7.40;4.00;;;;;;;19.67;100.00;101019.73;106388;1256;60441;-69
2023/07/10 00:59:37;;;;;;;9.10;5.10;;;;;;;19.70;100.00;101011.82;106556;1258;59209;-67
2023/07/10 01:02:06;;;;;;;9.30;4.50;;;;;;;19.73;100.00;101008.55;106129;1259;73958;-69
2023/07/10 01:04:34;;;;;;;7.00;4.50;;;;;;;19.74;100.00;101015.73;106564;1260;71582;-69
2023/07/10 01:07:01;;;;;;;8.40;4.40;;;;;;;19.74;100.00;101006.55;106412;1260;72596;-69
2023/07/10 01:09:27;;;;;;;10.70;4.60;;;;;;;19.74;100.00;101008.91;106252;1256;62036;-69
2023/07/10 01:11:54;;;;;;;8.10;4.70;;;;;;;19.74;100.00;101014.45;106479;1257;60476;-69
2023/07/10 01:14:22;;;;;;;7.80;4.60;;;;;;;19.74;100.00;101014.41;107540;1256;73912;-70
2023/07/10 01:16:49;;;;;;;7.30;4.80;;;;;;;19.75;100.00;101009.31;108777;1256;69734;-69
2023/07/10 01:19:21;;;;;;;7.00;4.80;;;;;;;19.77;100.00;101004.58;108634;1256;72001;-70
2023/07/10 01:21:50;;;;;;;10.10;4.70;;;;;;;19.79;100.00;101001.82;108646;1256;61584;-70
2023/07/10 01:24:17;;;;;;;9.80;4.40;;;;;;;19.80;100.00;100993.98;108892;1256;59554;-67
2023/07/10 01:26:44;;;;;;;9.60;4.90;;;;;;;19.81;100.00;100989.19;108829;1256;75083;-70
2023/07/10 01:29:31;;;;;;;7.50;4.90;;;;;;;19.82;100.00;100985.77;108843;1256;71331;-69
2023/07/10 01:32:00;;;;;;;9.10;5.00;;;;;;;19.84;100.00;100984.80;106388;1256;71895;-69
2023/07/10 01:34:49;;;;;;;8.10;4.90;;;;;;;19.85;100.00;100992.02;106563;1260;60951;-67
2023/07/10 01:37:15;;;;;;;9.00;4.70;;;;;;;19.85;100.00;100999.61;105870;1256;811656;-69
2023/07/10 01:39:46;;;;;;;7.90;4.70;;;;;;;19.85;100.00;101006.57;106319;1256;72623;-69
2023/07/10 01:42:13;;;;;;;8.80;4.90;;;;;;;19.85;100.00;101014.11;106610;1256;71300;-67
2023/07/10 01:44:43;;;;;;;9.10;5.00;;;;;;;19.85;100.00;101026.61;106339;1260;72665;-69
2023/07/10 01:47:11;;;;;;;7.50;4.80;;;;;;;19.86;100.00;101029.15;106398;1256;60969;-70
2023/07/10 01:49:55;;;;;;;9.50;5.10;;;;;;;19.87;100.00;101035.41;106395;1257;60702;-68
2023/07/10 01:52:22;;;;;;;12.80;6.10;;;;;;;19.86;100.00;101039.72;106363;1256;73809;-69
2023/07/10 01:54:50;;;;;;;7.40;5.00;;;;;;;19.86;100.00;101036.86;106578;1257;71422;-68
2023/07/10 01:57:24;;;;;;;9.30;4.80;;;;;;;19.87;100.00;101035.33;107054;1257;72551;-68
2023/07/10 01:59:51;;;;;;;7.40;4.70;;;;;;;19.89;100.00;101025.56;106752;1256;61081;-68
2023/07/10 02:02:18;;;;;;;7.70;5.00;;;;;;;19.91;100.00;101003.25;107930;1256;59179;-69
2023/07/10 02:04:45;;;;;;;10.90;5.00;;;;;;;19.94;100.00;101001.10;106808;1256;73955;-69
2023/07/10 02:07:11;;;;;;;7.10;5.20;;;;;;;19.95;100.00;101022.13;106466;1256;60480;-68
2023/07/10 02:09:38;;;;;;;10.90;5.30;;;;;;;19.93;100.00;101058.98;106796;1256;72706;-68
2023/07/10 02:12:05;;;;;;;8.10;4.60;;;;;;;19.90;100.00;101053.50;106608;1256;59245;-69
2023/07/10 02:14:32;;;;;;;10.00;5.80;;;;;;;19.86;100.00;101048.42;106577;1256;60433;-70
2023/07/10 02:16:58;;;;;;;9.40;5.20;;;;;;;19.84;100.00;101039.92;106455;1257;73216;-71
2023/07/10 02:19:25;;;;;;;7.90;5.30;;;;;;;19.82;100.00;101036.44;106576;1256;70407;-69
2023/07/10 02:21:52;;;;;;;10.90;5.50;;;;;;;19.83;100.00;101041.73;107088;1256;72772;-67
2023/07/10 02:24:19;;;;;;;13.20;5.90;;;;;;;19.84;100.00;101045.10;106901;1256;60792;-69
2023/07/10 02:26:45;;;;;;;10.90;5.80;;;;;;;19.84;100.00;101043.11;106848;1256;60442;-68
2023/07/10 02:29:12;;;;;;;8.40;5.50;;;;;;;19.84;100.00;101029.20;106514;1256;73864;-69
2023/07/10 02:31:38;;;;;;;9.20;6.00;;;;;;;19.86;100.00;101016.82;106510;1256;70316;-69
2023/07/10 02:34:05;;;;;;;14.30;5.90;;;;;;;19.89;100.00;101013.30;106446;1256;60447;-68
2023/07/10 02:36:32;;;;;;;10.60;6.10;;;;;;;19.92;100.00;101004.65;106412;1257;62423;-68
2023/07/10 02:38:59;;;;;;;8.30;5.60;;;;;;;19.94;100.00;100992.70;106655;1256;60505;-69
2023/07/10 02:41:26;;;;;;;10.20;5.50;;;;;;;19.94;100.00;100995.24;106697;1260;60372;-68
2023/07/10 02:43:52;;;;;;;10.20;5.50;;;;;;;19.94;100.00;100997.22;106866;1256;70725;-68
2023/07/10 02:46:19;;;;;;;8.60;5.60;;;;;;;19.94;100.00;100998.40;106798;1258;72182;-68
2023/07/10 02:48:45;;;;;;;10.80;6.00;;;;;;;19.93;100.00;100998.87;107380;1256;61027;-68
2023/07/10 02:51:12;;;;;;;9.90;5.80;;;;;;;19.92;100.00;101005.19;106859;1257;60569;-69
2023/07/10 02:53:39;;;;;;;9.70;6.10;;;;;;;19.92;100.00;101015.08;107619;1256;73277;-68
2023/07/10 02:56:06;;;;;;;10.10;6.20;;;;;;;19.93;100.00;101013.13;106837;1256;70031;-69
2023/07/10 02:58:33;;;;;;;8.70;5.80;;;;;;;19.94;100.00;101017.34;106496;1256;73268;-68
2023/07/10 03:01:01;;;;;;;10.00;6.30;;;;;;;19.98;100.00;101017.17;106641;1258;61035;-68
2023/07/10 03:03:29;;;;;;;10.50;6.40;;;;;;;20.02;100.00;101014.27;106671;1256;61141;-68
2023/07/10 03:06:00;;;;;;;8.70;6.10;;;;;;;20.05;100.00;101022.60;106528;1257;72939;-68
2023/07/10 03:08:28;;;;;;;10.50;6.50;;;;;;;20.09;100.00;101018.86;106516;1262;69870;-68
2023/07/10 03:11:04;;;;;;;14.80;6.60;;;;;;;20.11;100.00;101008.42;106418;1263;72797;-68
2023/07/10 03:13:31;;;;;;;10.10;6.30;;;;;;;20.12;100.00;101021.33;106548;1256;63013;-67
2023/07/10 03:16:03;;;;;;;12.70;5.90;;;;;;;20.14;100.00;101029.39;106689;1257;60468;-67
2023/07/10 03:18:30;;;;;;;10.50;6.30;;;;;;;20.13;100.00;101024.92;106307;1257;73797;-68
2023/07/10 03:20:57;;;;;;;10.90;5.60;;;;;;;20.10;100.00;101031.14;106516;1262;69946;-69
2023/07/10 03:23:24;;;;;;;11.60;6.50;;;;;;;20.08;100.00;101032.84;106799;1256;72731;-68
2023/07/10 03:25:51;;;;;;;9.20;6.00;;;;;;;20.04;100.00;101040.39;106913;1257;62129;-69
2023/07/10 03:28:18;;;;;;;13.90;6.40;;;;;;;20.01;100.00;101022.58;107947;1256;60822;-68
2023/07/10 03:30:44;;;;;;;11.20;6.60;;;;;;;19.98;100.00;101027.79;106444;1257;73908;-69
2023/07/10 03:33:13;;;;;;;10.60;6.60;;;;;;;19.95;100.00;101031.11;106519;1257;71000;-68
2023/07/10 03:35:40;;;;;;;12.40;6.90;;;;;;;19.92;100.00;101030.04;106752;1256;71895;-69
2023/07/10 03:38:07;;;;;;;11.40;6.70;;;;;;;19.90;100.00;101034.15;106714;1256;61954;-69
2023/07/10 03:40:33;;;;;;;11.70;6.70;;;;;;;19.88;100.00;101031.58;106576;1256;60964;-68
2023/07/10 03:43:00;;;;;;;9.40;7.00;;;;;;;19.87;100.00;101022.95;106578;1256;72502;-68
2023/07/10 03:45:26;;;;;;;13.30;6.60;;;;;;;19.86;100.00;101022.20;106561;1256;70621;-69
2023/07/10 03:47:53;;;;;;;11.00;6.80;;;;;;;19.85;100.00;101033.11;107192;1256;60413;-68
2023/07/10 03:50:19;;;;;;;12.20;7.00;;;;;;;19.83;100.00;101034.56;106387;1256;60371;-68
2023/07/10 03:52:46;;;;;;;12.30;7.20;;;;;;;19.79;100.00;101028.11;106583;1256;60348;-70
2023/07/10 03:55:12;;;;;;;11.00;6.50;;;;;;;19.74;100.00;101021.63;106641;1260;60953;-69
2023/07/10 03:57:39;;;;;;;14.10;6.50;;;;;;;19.72;100.00;101010.52;106809;1256;60771;-69
2023/07/10 04:00:06;;;;;;;12.70;6.60;;;;;;;19.71;100.00;101013.10;106242;1258;71549;-68
2023/07/10 04:02:33;;;;;;;12.60;7.10;;;;;;;19.73;100.00;101013.31;106180;1262;61699;-68
2023/07/10 04:04:59;;;;;;;13.20;7.20;;;;;;;19.74;100.00;101004.06;106130;1256;60336;-68
2023/07/10 04:07:26;;;;;;;10.70;7.00;;;;;;;19.75;100.00;101007.16;106440;1257;72769;-68
2023/07/10 04:09:55;;;;;;;12.30;7.20;;;;;;;19.75;100.00;101007.16;106414;1256;71026;-68
2023/07/10 04:12:21;;;;;;;12.70;7.00;;;;;;;19.74;100.00;101003.73;106368;1257;60464;-69
2023/07/10 04:14:48;;;;;;;12.90;7.10;;;;;;;19.73;100.00;100998.50;106382;1256;62051;-69
2023/07/10 04:17:15;;;;;;;12.40;6.80;;;;;;;19.74;100.00;101002.98;106325;1256;60588;-69
2023/07/10 04:19:41;;;;;;;10.50;7.20;;;;;;;19.75;100.00;101000.70;106686;1258;59556;-67
2023/07/10 04:22:08;;;;;;;13.90;6.70;;;;;;;19.75;100.00;100991.39;106500;1256;69989;-67
2023/07/10 04:24:35;;;;;;;10.80;6.40;;;;;;;19.75;100.00;100988.65;106897;1256;72771;-68
2023/07/10 04:27:02;;;;;;;11.40;6.10;;;;;;;19.76;100.00;100995.05;106285;1256;61524;-69
2023/07/10 04:29:29;;;;;;;10.40;6.00;;;;;;;19.77;100.00;101001.77;106286;1256;60486;-69
2023/07/10 04:31:55;;;;;;;10.70;5.80;;;;;;;19.78;100.00;101004.92;106379;1256;60338;-67
2023/07/10 04:34:22;;;;;;;8.90;5.90;;;;;;;19.79;100.00;101006.52;108953;1256;58127;-68
2023/07/10 04:36:49;;;;;;;11.40;5.20;;;;;;;19.80;100.00;101014.45;107202;1262;71557;-68
2023/07/10 04:39:15;;;;;;;11.60;5.30;;;;;;;19.83;100.00;101013.25;106899;1256;60452;-68
2023/07/10 04:41:44;;;;;;;9.30;5.80;;;;;;;19.88;100.00;101014.17;107275;1256;60959;-68
2023/07/10 04:44:10;;;;;;;8.10;5.70;;;;;;;19.93;100.00;101018.05;107466;1256;73025;-68
2023/07/10 04:46:37;;;;;;;11.60;5.90;;;;;;;20.00;100.00;101018.48;107054;1259;60579;-68
2023/07/10 04:49:04;;;;;;;10.40;5.90;;;;;;;20.08;100.00;101019.48;106666;1260;60827;-69
2023/07/10 04:51:30;;;;;;;11.90;6.20;;;;;;;20.14;100.00;101025.89;106513;1256;62201;-68
2023/07/10 04:53:57;;;;;;;11.60;6.50;;;;;;;20.22;100.00;101025.95;106914;1257;60477;-68
2023/07/10 04:56:23;;;;;;;12.40;7.50;;;;;;;20.27;100.00;101022.23;106905;1256;74922;-67
2023/07/10 04:58:58;;;;;;;14.10;7.80;;;;;;;20.30;100.00;101028.93;106730;1259;70098;-67
2023/07/10 05:01:32;;;;;;;12.60;8.50;;;;;;;20.33;100.00;101023.09;106482;1257;72321;-70
2023/07/10 05:04:00;;;;;;;14.70;8.20;;;;;;;20.37;100.00;101017.38;106629;1257;61072;-67
2023/07/10 05:06:27;;;;;;;15.60;8.70;;;;;;;20.43;100.00;101019.93;106594;1256;60516;-69
2023/07/10 05:08:56;;;;;;;13.70;8.80;;;;;;;20.49;100.00;101016.86;106821;1256;73857;-67
2023/07/10 05:11:26;;;;;;;10.40;7.80;;;;;;;20.57;100.00;101023.98;106781;1261;70382;-68
2023/07/10 05:13:53;;;;;;;13.10;8.80;;;;;;;20.59;100.00;101029.23;106671;1256;72730;-67
2023/07/10 05:16:20;;;;;;;14.10;8.70;;;;;;;20.61;100.00;101022.60;106582;1256;60594;-67
2023/07/10 05:18:47;;;;;;;11.90;8.70;;;;;;;20.64;100.00;101025.91;106536;1257;60476;-67
2023/07/10 05:21:13;;;;;;;12.30;8.30;;;;;;;20.64;100.00;101028.81;106383;1256;73095;-66
2023/07/10 05:23:40;;;;;;;13.60;9.70;;;;;;;20.60;100.00;101034.11;106735;1260;68984;-68
2023/07/10 05:26:13;;;;;;;14.50;8.80;;;;;;;20.61;100.00;101034.02;106577;1259;72673;-68
2023/07/10 05:28:41;;;;;;;14.30;9.00;;;;;;;20.61;100.00;101036.23;106458;1257;60502;-69
2023/07/10 05:31:10;;;;;;;10.20;8.10;;;;;;;20.63;100.00;101043.98;106668;1257;61298;-70
2023/07/10 05:33:40;;;;;;;14.00;9.20;;;;;;;20.57;100.00;101044.20;107060;1256;74173;-68
2023/07/10 05:36:10;;;;;;;14.80;9.50;;;;;;;20.56;100.00;101042.93;106718;1256;69789;-68
2023/07/10 05:38:38;;;;;;;15.70;10.00;;;;;;;20.55;100.00;101050.58;106590;1256;72821;-69
2023/07/10 05:41:05;;;;;;;13.20;10.00;;;;;;;20.50;100.00;101055.04;108912;1256;61984;-70
2023/07/10 05:43:33;;;;;;;13.20;9.20;;;;;;;20.44;100.00;101057.94;108688;1256;60632;-70
2023/07/10 05:46:00;;;;;;;13.90;9.90;;;;;;;20.39;100.00;101054.28;107776;1256;72436;-69
2023/07/10 05:48:28;;;;;;;17.60;9.60;;;;;;;20.36;100.00;101058.93;108464;1262;70666;-69
2023/07/10 05:50:56;;;;;;;13.00;9.80;;;;;;;20.34;100.00;101064.17;108626;1256;72744;-68
2023/07/10 05:53:23;;;;;;;13.70;11.00;;;;;;;20.31;100.00;101074.54;108322;1257;60875;-69
2023/07/10 05:55:53;;;;;;;13.40;10.50;;;;;;;20.23;100.00;101090.63;108229;1256;60207;-70
2023/07/10 05:58:21;;;;;;;15.50;11.40;;;;;;;20.15;100.00;101094.02;106791;1256;72731;-66
2023/07/10 06:00:50;;;;;;;15.00;11.90;;;;;;;20.10;100.00;101092.09;106903;1257;71548;-70
2023/07/10 06:03:17;;;;;;;13.90;11.00;;;;;;;20.06;100.00;101096.34;107100;1256;72750;-68
2023/07/10 06:05:55;;;;;;;14.00;11.10;;;;;;;20.04;100.00;101102.70;106956;1261;62008;-71
2023/07/10 06:08:27;;;;;;;17.70;12.50;;;;;;;19.98;100.00;101096.62;107327;1260;60785;-68
2023/07/10 06:10:53;;;;;;;15.10;11.50;;;;;;;19.94;100.00;101094.71;107491;1257;72920;-68
2023/07/10 06:13:21;;;;;;;15.80;11.50;;;;;;;19.93;100.00;101094.23;107661;1256;71318;-69
2023/07/10 06:15:50;;;;;;;15.60;12.00;;;;;;;19.91;100.00;101100.71;108053;1256;71975;-71
2023/07/10 06:18:18;;;;;;;17.40;15.10;;;;;;;19.91;100.00;101099.56;107995;1256;61656;-68
2023/07/10 06:20:55;;;;;;;49.00;42.30;;;;;;;19.92;100.00;101099.80;107527;1256;60448;-67
2023/07/10 06:23:23;;;;;;;70.60;61.80;;;;;;;19.94;100.00;101104.86;107350;1256;72498;-69
2023/07/10 06:25:51;;;;;;;46.60;35.00;;;;;;;19.93;100.00;101107.77;106652;1262;69519;-70
2023/07/10 06:28:18;;;;;;;44.50;35.40;;;;;;;19.94;100.00;101110.08;107852;1256;70614;-67
2023/07/10 06:30:54;;;;;;;31.90;24.20;;;;;;;19.95;100.00;101117.23;106757;1256;60770;-71
2023/07/10 06:33:20;;;;;;;71.20;62.80;;;;;;;19.98;100.00;101117.08;106916;1256;60454;-69
2023/07/10 06:35:47;;;;;;;31.90;26.20;;;;;;;19.97;100.00;101123.21;106625;1256;73924;-69
2023/07/10 06:38:14;;;;;;;19.20;16.30;;;;;;;19.93;100.00;101127.41;107053;1256;71540;-68
2023/07/10 06:40:41;;;;;;;20.30;16.80;;;;;;;19.89;100.00;101135.11;106635;1257;71540;-69
2023/07/10 06:43:09;;;;;;;20.80;16.60;;;;;;;19.89;100.00;101132.73;106886;1256;62192;-69
2023/07/10 06:45:36;;;;;;;33.60;29.30;;;;;;;19.86;100.00;101138.19;106944;1256;60391;-69
2023/07/10 06:48:03;;;;;;;14.10;12.90;;;;;;;19.85;100.00;101147.85;106644;1256;72886;-69
2023/07/10 06:50:29;;;;;;;32.70;27.30;;;;;;;19.83;100.00;101151.52;106648;1262;69993;-69
2023/07/10 06:52:57;;;;;;;16.70;11.60;;;;;;;19.80;100.00;101154.33;107087;1256;71549;-68
2023/07/10 06:55:45;;;;;;;14.20;11.30;;;;;;;19.73;100.00;101154.23;107205;1256;60624;-67
2023/07/10 06:58:12;;;;;;;17.10;13.40;;;;;;;19.69;100.00;101151.95;106841;1257;60859;-69
2023/07/10 07:00:39;;;;;;;13.80;11.50;;;;;;;19.70;100.00;101151.45;106937;1256;71911;-69
2023/07/10 07:03:07;;;;;;;22.40;18.70;;;;;;;19.69;100.00;101159.22;106878;1256;71008;-69
2023/07/10 07:05:34;;;;;;;24.50;20.40;;;;;;;19.71;100.00;101155.20;106746;1256;71576;-69
2023/07/10 07:08:02;;;;;;;33.30;29.00;;;;;;;19.78;100.00;101157.16;106973;1262;60552;-68
2023/07/10 07:10:32;;;;;;;41.40;34.80;;;;;;;19.82;100.00;101152.56;106753;1260;60520;-70
2023/07/10 07:12:59;;;;;;;18.90;15.10;;;;;;;19.90;100.00;101150.27;107150;1256;71803;-69
2023/07/10 07:15:26;;;;;;;20.80;16.50;;;;;;;19.94;100.00;101151.47;106933;1262;71125;-69
2023/07/10 07:17:53;;;;;;;44.40;35.20;;;;;;;19.97;100.00;101151.42;107813;1256;72369;-68
2023/07/10 07:20:20;;;;;;;23.90;18.40;;;;;;;20.01;100.00;101145.34;108309;1256;62780;-69
2023/07/10 07:22:47;;;;;;;23.00;15.80;;;;;;;20.09;100.00;101137.90;108333;1257;59541;-69
2023/07/10 07:25:14;;;;;;;26.40;19.70;;;;;;;20.20;100.00;101137.17;107023;1260;74723;-69
2023/07/10 07:27:41;;;;;;;52.80;40.90;;;;;;;20.29;100.00;101133.94;107492;1256;71650;-69
2023/07/10 07:30:09;;;;;;;17.70;13.20;;;;;;;20.38;100.00;101143.97;106700;1256;72473;-71
2023/07/10 07:32:36;;;;;;;24.30;20.90;;;;;;;20.42;100.00;101144.33;106906;1265;61258;-68
2023/07/10 07:35:03;;;;;;;16.50;12.70;;;;;;;20.41;100.00;101152.02;108649;1257;59351;-68
2023/07/10 07:37:39;;;;;;;25.40;21.20;;;;;;;20.42;100.00;101154.52;108008;1256;74877;-68
2023/07/10 07:40:06;;;;;;;14.20;10.90;;;;;;;20.43;100.00;101153.09;108638;1256;69497;-70
2023/07/10 07:42:33;;;;;;;16.30;14.00;;;;;;;20.45;99.96;101154.07;108532;1257;72709;-70
2023/07/10 07:44:59;;;;;;;18.70;14.30;;;;;;;20.46;99.94;101151.98;107724;1256;61467;-70
2023/07/10 07:47:27;;;;;;;15.30;12.40;;;;;;;20.47;99.75;101157.77;108123;1256;59615;-70
2023/07/10 07:49:54;;;;;;;19.30;12.80;;;;;;;20.47;99.78;101159.80;108351;1256;74454;-70
2023/07/10 07:52:21;;;;;;;15.80;11.30;;;;;;;20.47;99.58;101162.85;108107;1259;70998;-69
2023/07/10 07:54:48;;;;;;;14.90;13.30;;;;;;;20.43;99.40;101161.67;106984;1256;61838;-68
2023/07/10 07:57:15;;;;;;;17.60;12.30;;;;;;;20.38;99.35;101163.33;106772;1256;62179;-70
2023/07/10 07:59:41;;;;;;;14.60;12.80;;;;;;;20.34;99.75;101166.68;107222;1256;62608;-69
2023/07/10 08:02:09;;;;;;;40.00;35.80;;;;;;;20.31;99.99;101169.88;106980;1256;74174;-70
2023/07/10 08:04:36;;;;;;;45.30;37.80;;;;;;;20.28;100.00;101170.64;106839;1256;69129;-69
2023/07/10 08:07:03;;;;;;;22.70;18.30;;;;;;;20.26;100.00;101173.56;106890;1257;73893;-69
2023/07/10 08:09:29;;;;;;;43.20;37.50;;;;;;;20.22;100.00;101183.40;106937;1262;60840;-69
2023/07/10 08:11:56;;;;;;;27.80;20.80;;;;;;;20.20;100.00;101176.25;106897;1260;61244;-69
2023/07/10 08:14:23;;;;;;;17.40;13.40;;;;;;;20.20;100.00;101181.92;106971;1256;74377;-70
2023/07/10 08:16:49;;;;;;;18.10;12.60;;;;;;;20.19;100.00;101180.11;106722;1256;72341;-69
2023/07/10 08:19:16;;;;;;;13.20;10.90;;;;;;;20.23;100.00;101180.11;107046;1256;73665;-69
2023/07/10 08:21:43;;;;;;;12.50;8.80;;;;;;;20.32;100.00;101178.45;106931;1256;61260;-68
2023/07/10 08:24:10;;;;;;;19.50;16.20;;;;;;;20.40;100.00;101182.77;106921;1260;61413;-69
2023/07/10 08:26:36;;;;;;;50.50;45.00;;;;;;;20.55;100.00;101182.47;106644;1262;75870;-69
2023/07/10 08:29:25;;;;;;;41.60;37.10;;;;;;;20.63;99.81;101187.79;107155;1257;71230;-72
2023/07/10 08:31:54;;;;;;;34.80;31.00;;;;;;;20.70;98.36;101186.63;106673;1260;72049;-70
2023/07/10 08:34:21;;;;;;;41.40;36.00;;;;;;;20.78;97.37;101194.80;106817;1256;62423;-70
2023/07/10 08:36:51;;;;;;;30.60;23.40;;;;;;;20.85;96.24;101190.77;106712;1256;61646;-69
2023/07/10 08:39:20;;;;;;;51.20;41.30;;;;;;;20.89;95.43;101195.08;106864;1262;73730;-69
2023/07/10 08:42:02;;;;;;;28.40;23.40;;;;;;;20.90;94.74;101203.58;106835;1257;71110;-69
2023/07/10 08:44:33;;;;;;;17.60;13.60;;;;;;;20.90;94.80;101196.60;106647;1262;72392;-70
2023/07/10 08:47:04;;;;;;;25.70;19.00;;;;;;;20.90;94.49;101194.45;107011;1257;60917;-69
2023/07/10 08:49:38;;;;;;;43.80;35.10;;;;;;;20.92;94.32;101193.83;107092;1256;61286;-70
2023/07/10 08:52:12;;;;;;;25.50;20.10;;;;;;;21.13;94.33;101194.53;108892;1257;74409;-70
2023/07/10 08:54:39;;;;;;;20.50;15.90;;;;;;;21.37;92.29;101198.45;106812;1256;70773;-68
2023/07/10 08:57:17;;;;;;;23.30;17.90;;;;;;;21.51;90.28;101201.70;106723;1256;72122;-69
2023/07/10 08:59:56;;;;;;;21.40;15.90;;;;;;;21.68;89.17;101190.77;106847;1258;61839;-71
2023/07/10 09:02:49;;;;;;;18.20;12.30;;;;;;;21.82;88.28;101191.70;106707;1260;61652;-70
2023/07/10 09:05:22;;;;;;;26.90;12.60;;;;;;;21.89;87.21;101191.62;106769;1260;76248;-69
2023/07/10 09:07:49;;;;;;;17.30;11.60;;;;;;;21.99;86.89;101197.06;106845;1256;71246;-71
2023/07/10 09:10:45;;;;;;;16.20;11.10;;;;;;;22.07;85.81;101196.73;106549;1256;71611;-70
2023/07/10 09:13:28;;;;;;;15.60;12.00;;;;;;;22.09;85.21;101196.30;106708;1256;61133;-71
2023/07/10 09:15:59;;;;;;;7.80;4.70;;;;;;;22.13;85.19;101197.78;106867;1260;61209;-68
2023/07/10 09:18:41;;;;;;;7.90;5.30;;;;;;;22.07;84.47;101202.84;107068;1257;73139;-69
2023/07/10 09:21:18;;;;;;;7.60;4.90;;;;;;;21.99;84.74;101203.01;106880;1257;70187;-69
2023/07/10 09:23:46;;;;;;;8.80;5.00;;;;;;;21.97;84.93;101210.16;106793;1257;72671;-69
2023/07/10 09:26:20;;;;;;;7.50;5.00;;;;;;;21.99;85.09;101209.40;106890;1263;61253;-70
2023/07/10 09:29:09;;;;;;;7.70;5.00;;;;;;;21.97;84.99;101215.09;107081;1257;61264;-68
2023/07/10 09:31:59;;;;;;;8.90;5.80;;;;;;;21.88;85.42;101212.41;106845;1257;74636;-70
2023/07/10 09:34:33;;;;;;;9.60;5.60;;;;;;;21.88;86.10;101217.81;106860;1262;71580;-69
2023/07/10 09:37:02;;;;;;;8.50;5.70;;;;;;;21.91;85.86;101220.79;106635;1257;72860;-71
2023/07/10 09:39:32;;;;;;;9.50;6.40;;;;;;;21.96;85.33;101216.39;106660;1259;62639;-69
2023/07/10 09:42:02;;;;;;;10.00;6.60;;;;;;;21.98;84.96;101218.58;106932;1260;61203;-68
2023/07/10 09:44:43;;;;;;;10.40;6.10;;;;;;;22.04;85.22;101218.95;106653;1257;74619;-68
2023/07/10 09:47:13;;;;;;;10.20;6.80;;;;;;;22.05;84.70;101225.55;107193;1257;71254;-68
2023/07/10 09:49:47;;;;;;;8.70;6.60;;;;;;;22.00;84.87;101225.39;106641;1257;71630;-68
2023/07/10 09:52:24;;;;;;;12.80;6.70;;;;;;;21.96;85.34;101231.20;106905;1259;62039;-70
2023/07/10 09:55:22;;;;;;;17.10;14.70;;;;;;;22.05;85.39;101228.31;107098;1258;59302;-69
2023/07/10 09:57:58;;;;;;;20.00;15.80;;;;;;;22.25;83.92;101228.67;106904;1260;73739;-69
2023/07/10 10:00:26;;;;;;;12.80;9.70;;;;;;;22.53;83.30;101226.15;106934;1256;69962;-70
2023/07/10 10:03:14;;;;;;;11.80;8.70;;;;;;;22.82;81.37;101229.98;107062;1256;71540;-71
2023/07/10 10:05:41;;;;;;;14.90;12.20;;;;;;;23.16;79.16;101231.30;107040;1256;62011;-70
2023/07/10 10:08:26;;;;;;;8.00;5.20;;;;;;;23.41;76.71;101236.00;106976;1262;60242;-69
2023/07/10 10:11:06;;;;;;;7.30;4.00;;;;;;;23.62;74.75;101231.50;106913;1257;74215;-69
2023/07/10 10:13:42;;;;;;;8.40;4.70;;;;;;;23.89;73.57;101234.16;107001;1257;71539;-71
2023/07/10 10:16:28;;;;;;;6.00;4.10;;;;;;;24.13;72.94;101229.33;107211;1257;72381;-71
2023/07/10 10:19:04;;;;;;;5.50;3.30;;;;;;;24.26;71.16;101231.80;107212;1258;62040;-71
2023/07/10 10:21:33;;;;;;;8.20;4.20;;;;;;;24.34;71.16;101235.10;106865;1258;61279;-70
2023/07/10 10:24:05;;;;;;;6.80;3.00;;;;;;;24.36;68.60;101248.80;107101;1257;73479;-66
2023/07/10 10:26:46;;;;;;;5.50;2.90;;;;;;;24.29;68.61;101246.64;106811;1260;69655;-69
2023/07/10 10:29:44;;;;;;;6.50;3.30;;;;;;;24.30;69.04;101242.23;106730;1262;72844;-69
2023/07/10 10:32:35;;;;;;;6.10;2.60;;;;;;;24.49;68.90;101241.48;106973;1260;60460;-68
2023/07/10 10:35:17;;;;;;;9.20;3.20;;;;;;;24.71;68.55;101245.02;107117;1257;61132;-69
2023/07/10 10:37:50;;;;;;;4.80;3.30;;;;;;;24.76;68.13;101257.11;106897;1262;72902;-70
2023/07/10 10:40:23;;;;;;;5.60;3.80;;;;;;;24.64;68.37;101253.41;107093;1260;72752;-71
2023/07/10 10:42:56;;;;;;;7.00;3.70;;;;;;;24.66;68.69;101255.33;107032;1262;71101;-69
2023/07/10 10:45:46;;;;;;;5.10;3.20;;;;;;;24.75;68.29;101256.63;106817;1260;61325;-70
2023/07/10 10:48:29;;;;;;;5.10;3.10;;;;;;;24.84;66.24;101249.02;107020;1257;61465;-71
2023/07/10 10:51:14;;;;;;;5.80;2.80;;;;;;;24.94;65.84;101242.64;106674;1261;74706;-73
2023/07/10 10:53:53;;;;;;;4.50;2.70;;;;;;;24.99;63.38;101240.89;107145;1257;70516;-69
2023/07/10 10:56:43;;;;;;;3.80;2.00;;;;;;;25.00;61.96;101235.20;106565;1260;72387;-69
2023/07/10 10:59:28;;;;;;;6.80;2.50;;;;;;;25.07;62.76;101246.06;107151;1257;61141;-70
2023/07/10 11:02:16;;;;;;;7.00;3.00;;;;;;;25.06;63.74;101244.02;106782;1258;60380;-73
2023/07/10 11:04:46;;;;;;;3.60;2.60;;;;;;;25.14;64.08;101241.94;106903;1257;72890;-73
2023/07/10 11:07:19;;;;;;;5.80;2.90;;;;;;;25.13;63.22;101250.89;107051;1260;70085;-71
2023/07/10 11:09:53;;;;;;;4.70;2.80;;;;;;;25.08;63.46;101249.91;106858;1262;72260;-72
2023/07/10 11:12:28;;;;;;;6.50;2.60;;;;;;;24.99;63.15;101252.34;106815;1257;61372;-71
2023/07/10 11:15:03;;;;;;;7.50;2.70;;;;;;;25.02;62.28;101250.25;106559;1263;61164;-72
2023/07/10 11:17:30;;;;;;;4.40;2.40;;;;;;;25.22;62.91;101247.28;107257;1260;74692;-71
2023/07/10 11:19:57;;;;;;;9.70;2.90;;;;;;;25.36;62.41;101247.08;106808;1262;70815;-72